Aviation Digital Data Service (ADDS)

Output produced by METARs form (1200 UTC 26 March 2019)
found at http://www.aviationweather.gov/metar/data/
 
FEFF 261100Z 28006KT 9999 SCT020 33/20 Q1011 NOSIG
TAF FEFF 260500Z 2606/2712 19005KT CAVOK 
     BECMG 2607/2609 BKN013 
     BECMG 2609/2611 BKN023 FEW40CB 
     PROB30 
     TEMPO 2614/2618 VRB20KT 4000 TSRA 
     BECMG 2618/2620 CAVOK
       
FEFT 261000Z 28016KT 9999 BKN022 30/23 Q////